createdAt,value
2019-05-16T00:00:12.216Z,9.61
2019-05-16T00:02:40.840Z,9.58
2019-05-16T00:05:09.585Z,9.60
2019-05-16T00:07:39.087Z,9.74
2019-05-16T00:10:08.535Z,9.71
2019-05-16T00:12:39.703Z,9.78
2019-05-16T00:15:09.082Z,9.88
2019-05-16T00:17:38.780Z,10.04
2019-05-16T00:20:09.185Z,9.94
2019-05-16T00:22:39.321Z,9.96
2019-05-16T00:25:08.859Z,9.98
2019-05-16T00:27:38.715Z,9.96
2019-05-16T00:30:09.020Z,9.99
2019-05-16T00:32:39.107Z,10.14
2019-05-16T00:35:09.146Z,10.10
2019-05-16T00:37:39.074Z,10.10
2019-05-16T00:40:08.534Z,10.06
2019-05-16T00:42:39.124Z,10.06
2019-05-16T00:45:09.127Z,10.27
2019-05-16T00:47:38.890Z,10.26
2019-05-16T00:50:08.843Z,10.21
2019-05-16T00:52:39.471Z,10.33
2019-05-16T00:55:08.669Z,10.14
2019-05-16T00:57:38.921Z,10.08
2019-05-16T01:00:08.918Z,10.15
2019-05-16T01:02:38.129Z,10.07
2019-05-16T01:05:08.493Z,10.01
2019-05-16T01:07:39.167Z,10.11
2019-05-16T01:10:09.001Z,10.06
2019-05-16T01:12:38.980Z,10.06
2019-05-16T01:15:08.399Z,10.30
2019-05-16T01:17:39.028Z,10.23
2019-05-16T01:20:08.582Z,10.08
2019-05-16T01:22:38.499Z,10.19
2019-05-16T01:25:09.422Z,9.87
2019-05-16T01:27:38.755Z,9.91
2019-05-16T01:30:09.062Z,10.04
2019-05-16T01:32:39.226Z,9.88
2019-05-16T01:35:08.416Z,9.84
2019-05-16T01:37:38.302Z,9.73
2019-05-16T01:40:08.171Z,9.73
2019-05-16T01:42:38.551Z,9.92
2019-05-16T01:45:08.312Z,9.94
2019-05-16T01:47:39.086Z,9.81
2019-05-16T01:50:09.183Z,9.82
2019-05-16T01:52:38.310Z,9.63
2019-05-16T01:55:08.249Z,9.69
2019-05-16T01:57:39.102Z,9.69
2019-05-16T02:00:08.632Z,9.85
2019-05-16T02:02:38.511Z,9.68
2019-05-16T02:05:08.295Z,9.85
2019-05-16T02:07:38.832Z,9.78
2019-05-16T02:10:08.943Z,9.75
2019-05-16T02:12:38.395Z,9.47
2019-05-16T02:15:08.719Z,9.42
2019-05-16T02:17:38.370Z,9.55
2019-05-16T02:20:08.730Z,9.44
2019-05-16T02:22:39.032Z,9.59
2019-05-16T02:25:09.349Z,9.43
2019-05-16T02:27:40.945Z,9.44
2019-05-16T02:30:12.614Z,9.32
2019-05-16T02:32:41.644Z,9.43
2019-05-16T02:35:11.900Z,9.26
2019-05-16T02:37:42.092Z,9.29
2019-05-16T02:40:13.233Z,9.17
2019-05-16T02:42:42.545Z,9.27
2019-05-16T02:45:11.474Z,9.18
2019-05-16T02:47:42.544Z,9.14
2019-05-16T02:50:12.236Z,9.18
2019-05-16T02:52:41.697Z,9.11
2019-05-16T02:55:11.646Z,9.37
2019-05-16T02:57:41.703Z,9.36
2019-05-16T03:00:12.444Z,9.34
2019-05-16T03:02:42.180Z,9.28
2019-05-16T03:05:12.519Z,9.23
2019-05-16T03:07:46.810Z,9.10
2019-05-16T03:10:13.616Z,9.04
2019-05-16T03:12:43.939Z,9.13
2019-05-16T03:15:13.205Z,9.04
2019-05-16T03:17:42.731Z,8.98
2019-05-16T03:20:11.811Z,8.97
2019-05-16T03:22:41.491Z,9.15
2019-05-16T03:25:11.469Z,8.88
2019-05-16T03:27:41.396Z,8.82
2019-05-16T03:30:15.227Z,8.75
2019-05-16T03:32:44.647Z,8.74
2019-05-16T03:35:15.159Z,8.79
2019-05-16T03:37:54.924Z,8.85
2019-05-16T03:40:15.402Z,8.79
2019-05-16T03:42:44.011Z,8.89
2019-05-16T03:45:12.760Z,8.77
2019-05-16T03:47:42.728Z,8.78
2019-05-16T03:50:11.621Z,8.85
2019-05-16T03:52:43.342Z,8.74
2019-05-16T03:55:11.183Z,8.73
2019-05-16T03:57:41.707Z,8.72
2019-05-16T04:00:12.134Z,8.74
2019-05-16T04:02:44.754Z,8.81
2019-05-16T04:05:11.683Z,8.99
2019-05-16T04:07:41.376Z,8.91
2019-05-16T04:10:11.368Z,8.98
2019-05-16T04:12:42.058Z,9.02
2019-05-16T04:15:11.501Z,8.95
2019-05-16T04:17:41.324Z,9.05
2019-05-16T04:20:11.549Z,9.06
2019-05-16T04:22:41.040Z,8.95
2019-05-16T04:25:11.450Z,9.00
2019-05-16T04:27:41.619Z,9.00
2019-05-16T04:30:11.855Z,9.02
2019-05-16T04:32:41.979Z,9.12
2019-05-16T04:35:11.574Z,9.07
2019-05-16T04:37:42.164Z,9.19
2019-05-16T04:40:12.014Z,9.03
2019-05-16T04:42:41.930Z,9.10
2019-05-16T04:45:12.136Z,9.06
2019-05-16T04:47:41.605Z,9.14
2019-05-16T04:50:11.964Z,9.40
2019-05-16T04:52:41.946Z,9.02
2019-05-16T04:55:12.107Z,9.08
2019-05-16T04:57:42.282Z,9.04
2019-05-16T05:00:11.916Z,9.30
2019-05-16T05:02:41.936Z,9.43
2019-05-16T05:05:12.591Z,9.37
2019-05-16T05:07:41.642Z,9.28
2019-05-16T05:10:11.319Z,9.27
2019-05-16T05:12:41.055Z,9.32
2019-05-16T05:15:11.443Z,9.10
2019-05-16T05:17:41.157Z,9.31
2019-05-16T05:20:10.747Z,9.13
2019-05-16T05:22:40.062Z,9.34
2019-05-16T05:25:10.889Z,9.48
2019-05-16T05:27:41.185Z,9.58
2019-05-16T05:30:10.782Z,9.39
2019-05-16T05:32:41.423Z,9.25
2019-05-16T05:35:10.974Z,9.33
2019-05-16T05:37:41.050Z,9.38
2019-05-16T05:40:10.654Z,9.23
2019-05-16T05:42:39.972Z,9.14
2019-05-16T05:45:11.128Z,9.02
2019-05-16T05:47:40.342Z,9.04
2019-05-16T05:50:11.148Z,9.19
2019-05-16T05:52:41.209Z,9.33
2019-05-16T05:55:10.826Z,9.65
2019-05-16T05:57:40.365Z,9.37
2019-05-16T06:00:10.136Z,9.64
2019-05-16T06:02:40.352Z,9.62
2019-05-16T06:05:10.569Z,9.71
2019-05-16T06:07:40.561Z,9.45
2019-05-16T06:10:10.654Z,9.37
2019-05-16T06:12:40.832Z,9.35
2019-05-16T06:15:12.865Z,9.73
2019-05-16T06:17:40.785Z,9.41
2019-05-16T06:20:14.652Z,9.59
2019-05-16T06:22:40.709Z,9.52
2019-05-16T06:25:13.450Z,9.37
2019-05-16T06:27:40.755Z,9.32
2019-05-16T06:30:11.536Z,9.59
2019-05-16T06:32:40.332Z,9.34
2019-05-16T06:35:09.728Z,9.40
2019-05-16T06:37:40.637Z,9.58
2019-05-16T06:40:11.029Z,9.68
2019-05-16T06:42:40.409Z,9.55
2019-05-16T06:45:10.320Z,9.60
2019-05-16T06:47:39.876Z,9.66
2019-05-16T06:50:10.988Z,9.88
2019-05-16T06:52:40.887Z,9.50
2019-05-16T06:55:10.269Z,9.88
2019-05-16T06:57:40.897Z,10.04
2019-05-16T07:00:11.209Z,10.21
2019-05-16T07:02:40.882Z,10.42
2019-05-16T07:05:10.490Z,10.97
2019-05-16T07:07:40.486Z,11.27
2019-05-16T07:10:09.914Z,11.21
2019-05-16T07:12:41.083Z,11.29
2019-05-16T07:15:12.444Z,11.28
2019-05-16T07:17:41.415Z,11.44
2019-05-16T07:20:11.522Z,11.68
2019-05-16T07:22:40.764Z,11.46
2019-05-16T07:25:10.681Z,11.46
2019-05-16T07:27:40.109Z,11.83
2019-05-16T07:30:10.672Z,12.02
2019-05-16T07:32:40.462Z,12.38
2019-05-16T07:35:09.948Z,12.83
2019-05-16T07:37:39.901Z,12.95
2019-05-16T07:40:19.111Z,13.10
2019-05-16T07:42:40.439Z,13.18
2019-05-16T07:45:11.262Z,12.57
2019-05-16T07:47:40.453Z,12.14
2019-05-16T07:50:10.429Z,12.89
2019-05-16T07:52:40.145Z,13.30
2019-05-16T07:55:10.775Z,12.99
2019-05-16T07:57:40.074Z,13.40
2019-05-16T08:00:09.773Z,12.33
2019-05-16T08:02:40.263Z,11.98
2019-05-16T08:05:10.322Z,11.74
2019-05-16T08:07:40.636Z,11.64
2019-05-16T08:10:10.573Z,12.12
2019-05-16T08:12:40.693Z,11.49
2019-05-16T08:15:10.326Z,11.28
2019-05-16T08:17:41.368Z,11.97
2019-05-16T08:20:10.938Z,11.59
2019-05-16T08:22:41.597Z,11.82
2019-05-16T08:25:10.884Z,12.43
2019-05-16T08:27:41.368Z,12.25
2019-05-16T08:30:11.340Z,11.88
2019-05-16T08:32:42.288Z,11.57
2019-05-16T08:35:11.134Z,11.69
2019-05-16T08:37:45.997Z,11.70
2019-05-16T08:40:11.708Z,11.37
2019-05-16T08:42:41.614Z,11.98
2019-05-16T08:45:12.669Z,12.23
2019-05-16T08:47:42.563Z,12.19
2019-05-16T08:50:14.544Z,12.13
2019-05-16T08:52:44.077Z,12.21
2019-05-16T08:55:13.655Z,12.28
2019-05-16T08:57:42.535Z,12.35
2019-05-16T09:00:14.698Z,12.30
2019-05-16T09:02:42.621Z,11.75
2019-05-16T09:07:41.869Z,12.85
2019-05-16T09:10:30.922Z,12.22
2019-05-16T09:10:50.168Z,13.27
2019-05-16T09:12:41.558Z,13.26
2019-05-16T09:15:10.412Z,13.71
2019-05-16T09:17:39.087Z,13.33
2019-05-16T09:20:08.246Z,13.87
2019-05-16T09:22:37.881Z,14.14
2019-05-16T09:25:08.188Z,13.55
2019-05-16T09:27:38.091Z,13.28
2019-05-16T09:30:09.188Z,13.66
2019-05-16T09:32:42.411Z,13.50
2019-05-16T09:35:09.759Z,14.97
2019-05-16T09:37:38.540Z,15.58
2019-05-16T09:40:07.784Z,16.19
2019-05-16T09:42:37.340Z,16.71
2019-05-16T09:45:07.502Z,16.47
2019-05-16T09:47:39.085Z,17.01
2019-05-16T09:50:08.302Z,16.35
2019-05-16T09:52:37.110Z,17.06
2019-05-16T09:55:07.202Z,17.77
2019-05-16T09:57:37.663Z,16.50
2019-05-16T10:00:11.671Z,16.12
2019-05-16T10:02:40.414Z,16.22
2019-05-16T10:05:13.132Z,17.06
2019-05-16T10:07:40.009Z,15.96
2019-05-16T10:10:08.902Z,16.08
2019-05-16T10:12:37.661Z,15.70
2019-05-16T10:15:07.457Z,16.71
2019-05-16T10:17:37.012Z,15.95
2019-05-16T10:20:08.026Z,15.29
2019-05-16T10:22:37.410Z,15.64
2019-05-16T10:25:07.443Z,15.05
2019-05-16T10:27:36.747Z,15.25
2019-05-16T10:30:08.510Z,15.44
2019-05-16T10:32:39.724Z,15.89
2019-05-16T10:35:08.900Z,15.08
2019-05-16T10:37:37.813Z,14.60
2019-05-16T10:40:07.696Z,14.19
2019-05-16T10:42:38.041Z,14.16
2019-05-16T10:45:08.677Z,14.34
2019-05-16T10:47:37.645Z,13.86
2019-05-16T10:50:07.234Z,14.24
2019-05-16T10:52:36.711Z,13.75
2019-05-16T10:55:08.198Z,14.51
2019-05-16T10:57:37.812Z,14.41
2019-05-16T11:00:16.407Z,15.07
2019-05-16T11:02:38.766Z,14.57
2019-05-16T11:05:25.751Z,14.24
2019-05-16T11:07:37.972Z,15.05
2019-05-16T11:10:07.332Z,15.44
2019-05-16T11:12:47.385Z,16.24
2019-05-16T11:15:10.966Z,15.26
2019-05-16T11:17:38.155Z,15.76
2019-05-16T11:20:07.527Z,16.25
2019-05-16T11:22:37.089Z,17.25
2019-05-16T11:25:18.482Z,17.67
2019-05-16T11:27:37.643Z,17.44
2019-05-16T11:30:07.809Z,16.93
2019-05-16T11:32:37.495Z,16.19
2019-05-16T11:35:07.358Z,15.66
2019-05-16T11:37:37.562Z,16.58
2019-05-16T11:40:08.070Z,16.64
2019-05-16T11:42:38.053Z,16.59
2019-05-16T11:45:09.801Z,14.82
2019-05-16T11:47:39.554Z,16.23
2019-05-16T11:50:08.695Z,15.59
2019-05-16T11:52:40.595Z,15.24
2019-05-16T11:55:08.169Z,15.00
2019-05-16T11:57:37.998Z,15.91
2019-05-16T12:00:08.774Z,15.33
2019-05-16T12:02:41.799Z,15.60
2019-05-16T12:05:08.302Z,15.80
2019-05-16T12:07:44.071Z,15.54
2019-05-16T12:10:08.996Z,14.72
2019-05-16T12:12:37.955Z,14.83
2019-05-16T12:15:08.073Z,15.26
2019-05-16T12:17:37.423Z,15.16
2019-05-16T12:20:07.828Z,14.82
2019-05-16T12:22:37.803Z,14.56
2019-05-16T12:25:08.335Z,14.39
2019-05-16T12:27:42.381Z,14.39
2019-05-16T12:30:13.790Z,14.33
2019-05-16T12:32:39.486Z,13.74
2019-05-16T12:35:08.428Z,14.21
2019-05-16T12:37:37.582Z,14.19
2019-05-16T12:40:06.628Z,14.08
2019-05-16T12:42:36.483Z,14.40
2019-05-16T12:45:06.996Z,14.20
2019-05-16T12:47:37.516Z,14.41
2019-05-16T12:50:08.721Z,14.53
2019-05-16T12:52:38.417Z,14.43
2019-05-16T12:55:07.580Z,14.75
2019-05-16T12:57:38.321Z,15.03
2019-05-16T13:00:08.598Z,14.04
2019-05-16T13:02:38.882Z,14.67
2019-05-16T13:05:08.103Z,15.34
2019-05-16T13:07:37.728Z,15.40
2019-05-16T13:10:07.274Z,15.54
2019-05-16T13:12:37.794Z,14.94
2019-05-16T13:15:07.356Z,14.66
2019-05-16T13:17:37.176Z,14.99
2019-05-16T13:20:07.757Z,14.83
2019-05-16T13:22:38.419Z,14.67
2019-05-16T13:25:07.656Z,14.14
2019-05-16T13:27:37.326Z,14.72
2019-05-16T13:30:07.943Z,15.04
2019-05-16T13:32:37.556Z,15.88
2019-05-16T13:35:07.731Z,15.94
2019-05-16T13:37:36.791Z,15.73
2019-05-16T13:40:07.875Z,15.41
2019-05-16T13:42:37.644Z,14.23
2019-05-16T13:45:07.183Z,14.36
2019-05-16T13:47:37.607Z,14.52
2019-05-16T13:50:12.060Z,14.63
2019-05-16T13:52:38.877Z,14.61
2019-05-16T13:55:08.326Z,14.93
2019-05-16T13:57:37.601Z,15.61
2019-05-16T14:00:07.846Z,16.35
2019-05-16T14:02:37.725Z,16.35
2019-05-16T14:05:07.665Z,16.78
2019-05-16T14:07:37.306Z,17.01
2019-05-16T14:10:07.737Z,18.94
2019-05-16T14:12:36.828Z,18.38
2019-05-16T14:15:07.944Z,16.86
2019-05-16T14:17:37.437Z,16.26
2019-05-16T14:20:14.572Z,15.62
2019-05-16T14:22:38.098Z,15.56
2019-05-16T14:25:07.413Z,14.83
2019-05-16T14:27:38.300Z,14.83
2019-05-16T14:30:07.981Z,14.04
2019-05-16T14:32:41.572Z,13.89
2019-05-16T14:35:08.777Z,13.49
2019-05-16T14:37:38.407Z,13.69
2019-05-16T14:40:07.791Z,13.73
2019-05-16T14:42:38.573Z,13.95
2019-05-16T14:45:13.927Z,13.80
2019-05-16T14:47:42.597Z,13.90
2019-05-16T14:50:13.994Z,13.78
2019-05-16T14:52:42.455Z,13.85
2019-05-16T14:55:11.210Z,13.57
2019-05-16T14:57:39.949Z,13.77
2019-05-16T15:00:09.914Z,13.87
2019-05-16T15:02:38.861Z,14.03
2019-05-16T15:05:08.074Z,13.85
2019-05-16T15:07:37.487Z,13.85
2019-05-16T15:10:07.515Z,14.14
2019-05-16T15:12:37.604Z,13.81
2019-05-16T15:15:20.312Z,13.67
2019-05-16T15:17:38.619Z,13.28
2019-05-16T15:20:09.203Z,13.56
2019-05-16T15:22:38.569Z,13.39
2019-05-16T15:25:08.162Z,13.76
2019-05-16T15:27:37.466Z,13.33
2019-05-16T15:30:07.280Z,13.28
2019-05-16T15:32:38.474Z,13.09
2019-05-16T15:35:08.414Z,13.28
2019-05-16T15:37:37.695Z,13.13
2019-05-16T15:40:07.311Z,12.70
2019-05-16T15:42:37.333Z,12.82
2019-05-16T15:45:07.248Z,13.10
2019-05-16T15:47:37.544Z,13.00
2019-05-16T15:50:08.306Z,13.31
2019-05-16T15:52:38.118Z,13.55
2019-05-16T15:55:09.977Z,13.14
2019-05-16T15:57:38.868Z,13.01
2019-05-16T16:00:10.720Z,12.78
2019-05-16T16:02:38.804Z,13.02
2019-05-16T16:05:08.175Z,13.18
2019-05-16T16:07:38.113Z,13.28
2019-05-16T16:10:07.413Z,12.82
2019-05-16T16:12:37.524Z,13.25
2019-05-16T16:15:07.781Z,13.36
2019-05-16T16:17:38.016Z,13.29
2019-05-16T16:20:10.459Z,13.19
2019-05-16T16:22:38.187Z,13.45
2019-05-16T16:25:07.290Z,13.52
2019-05-16T16:27:36.132Z,12.98
2019-05-16T16:30:06.853Z,13.07
2019-05-16T16:32:38.023Z,13.06
2019-05-16T16:35:08.014Z,13.24
2019-05-16T16:37:37.863Z,13.27
2019-05-16T16:40:11.439Z,12.99
2019-05-16T16:42:37.791Z,13.17
2019-05-16T16:45:07.448Z,13.01
2019-05-16T16:47:37.761Z,12.65
2019-05-16T16:50:08.072Z,12.69
2019-05-16T16:52:37.968Z,12.68
2019-05-16T16:55:07.493Z,12.57
2019-05-16T16:57:38.298Z,12.40
2019-05-16T17:00:09.230Z,12.04
2019-05-16T17:02:37.864Z,12.37
2019-05-16T17:05:11.422Z,12.34
2019-05-16T17:07:37.796Z,12.30
2019-05-16T17:10:07.176Z,12.01
2019-05-16T17:12:41.663Z,12.10
2019-05-16T17:15:08.562Z,12.16
2019-05-16T17:17:37.870Z,11.89
2019-05-16T17:20:08.312Z,11.94
2019-05-16T17:22:37.744Z,11.92
2019-05-16T17:25:08.139Z,11.70
2019-05-16T17:27:37.659Z,11.58
2019-05-16T17:30:17.034Z,11.63
2019-05-16T17:32:45.513Z,11.97
2019-05-16T17:35:18.762Z,12.01
2019-05-16T17:37:46.993Z,11.85
2019-05-16T17:40:17.754Z,11.73
2019-05-16T17:42:47.654Z,11.34
2019-05-16T17:45:18.124Z,11.65
2019-05-16T17:47:46.972Z,11.45
2019-05-16T17:50:17.314Z,11.48
2019-05-16T17:52:47.640Z,11.61
2019-05-16T17:55:18.099Z,11.36
2019-05-16T17:57:46.741Z,11.11
2019-05-16T18:00:25.017Z,11.28
2019-05-16T18:02:48.058Z,11.14
2019-05-16T18:05:17.369Z,11.19
2019-05-16T18:07:47.466Z,11.08
2019-05-16T18:10:16.854Z,10.95
2019-05-16T18:12:47.730Z,10.47
2019-05-16T18:15:21.536Z,10.54
2019-05-16T18:17:50.210Z,10.55
2019-05-16T18:20:22.160Z,9.98
2019-05-16T18:22:50.225Z,10.36
2019-05-16T18:25:19.018Z,10.31
2019-05-16T18:27:47.780Z,10.31
2019-05-16T18:30:21.720Z,10.44
2019-05-16T18:32:50.599Z,10.61
2019-05-16T18:35:19.334Z,10.41
2019-05-16T18:37:48.161Z,10.28
2019-05-16T18:40:17.059Z,10.19
2019-05-16T18:42:47.657Z,9.97
2019-05-16T18:45:16.775Z,9.99
2019-05-16T18:47:47.023Z,9.89
2019-05-16T18:50:18.113Z,9.76
2019-05-16T18:52:47.244Z,9.70
2019-05-16T18:55:16.919Z,9.67
2019-05-16T18:57:47.289Z,9.90
2019-05-16T19:00:17.765Z,9.99
2019-05-16T19:02:47.842Z,9.82
2019-05-16T19:05:17.416Z,10.00
2019-05-16T19:07:47.614Z,9.73
2019-05-16T19:10:17.703Z,9.71
2019-05-16T19:12:47.721Z,9.98
2019-05-16T19:15:17.812Z,9.77
2019-05-16T19:17:46.806Z,9.82
2019-05-16T19:20:18.024Z,9.83
2019-05-16T19:22:46.924Z,9.73
2019-05-16T19:25:18.352Z,9.64
2019-05-16T19:27:46.559Z,9.58
2019-05-16T19:30:17.188Z,9.53
2019-05-16T19:32:46.891Z,9.60
2019-05-16T19:35:16.539Z,9.74
2019-05-16T19:37:47.024Z,9.62
2019-05-16T19:40:17.355Z,9.66
2019-05-16T19:42:47.252Z,9.79
2019-05-16T19:45:17.075Z,9.55
2019-05-16T19:47:46.961Z,9.56
2019-05-16T19:50:16.495Z,9.45
2019-05-16T19:52:47.190Z,9.42
2019-05-16T19:55:16.122Z,9.53
2019-05-16T19:57:46.633Z,9.50
2019-05-16T20:00:17.460Z,9.45
2019-05-16T20:02:47.315Z,9.48
2019-05-16T20:05:17.253Z,9.45
2019-05-16T20:07:45.875Z,9.55
2019-05-16T20:10:16.843Z,9.56
2019-05-16T20:12:46.333Z,9.30
2019-05-16T20:15:16.585Z,9.55
2019-05-16T20:17:56.149Z,9.59
2019-05-16T20:20:18.529Z,9.43
2019-05-16T20:22:46.696Z,9.52
2019-05-16T20:25:16.377Z,9.33
2019-05-16T20:27:46.943Z,9.52
2019-05-16T20:30:17.307Z,9.37
2019-05-16T20:32:45.867Z,9.40
2019-05-16T20:35:14.657Z,9.35
2019-05-16T20:37:43.395Z,9.35
2019-05-16T20:40:12.904Z,9.39
2019-05-16T20:42:41.552Z,9.32
2019-05-16T20:45:10.365Z,9.17
2019-05-16T20:47:38.903Z,9.22
2019-05-16T20:50:07.933Z,9.10
2019-05-16T20:52:37.833Z,9.06
2019-05-16T20:55:07.917Z,8.98
2019-05-16T20:57:37.594Z,9.04
2019-05-16T21:00:07.919Z,9.02
2019-05-16T21:02:37.816Z,9.15
2019-05-16T21:05:07.485Z,9.20
2019-05-16T21:07:37.435Z,9.18
2019-05-16T21:10:08.205Z,9.20
2019-05-16T21:12:40.090Z,9.13
2019-05-16T21:15:08.032Z,9.13
2019-05-16T21:17:36.775Z,9.16
2019-05-16T21:20:07.361Z,9.47
2019-05-16T21:22:37.062Z,9.31
2019-05-16T21:25:06.900Z,9.51
2019-05-16T21:27:37.859Z,9.55
2019-05-16T21:30:07.836Z,9.45
2019-05-16T21:32:36.738Z,9.39
2019-05-16T21:35:07.156Z,9.40
2019-05-16T21:37:37.393Z,9.42
2019-05-16T21:40:08.617Z,9.42
2019-05-16T21:42:37.297Z,9.30
2019-05-16T21:45:06.583Z,9.49
2019-05-16T21:47:36.940Z,9.31
2019-05-16T21:50:07.463Z,9.34
2019-05-16T21:52:36.517Z,9.53
2019-05-16T21:55:07.061Z,9.40
2019-05-16T21:57:37.717Z,9.30
2019-05-16T22:00:14.020Z,9.31
2019-05-16T22:02:43.066Z,9.23
2019-05-16T22:05:11.984Z,9.39
2019-05-16T22:07:40.718Z,9.41
2019-05-16T22:10:09.468Z,9.21
2019-05-16T22:12:38.525Z,9.04
2019-05-16T22:15:07.593Z,9.18
2019-05-16T22:17:36.626Z,9.22
2019-05-16T22:20:07.013Z,9.23
2019-05-16T22:22:38.168Z,9.10
2019-05-16T22:25:08.686Z,9.15
2019-05-16T22:27:37.194Z,9.16
2019-05-16T22:30:10.001Z,9.16
2019-05-16T22:32:39.050Z,9.03
2019-05-16T22:35:08.134Z,9.19
2019-05-16T22:37:48.861Z,9.22
2019-05-16T22:40:07.679Z,9.29
2019-05-16T22:42:37.440Z,9.15
2019-05-16T22:45:08.825Z,9.07
2019-05-16T22:47:37.701Z,9.08
2019-05-16T22:50:07.444Z,8.99
2019-05-16T22:52:36.869Z,9.15
2019-05-16T22:55:07.462Z,9.15
2019-05-16T22:57:36.236Z,9.07
2019-05-16T23:00:07.483Z,9.11
2019-05-16T23:02:36.772Z,9.00
2019-05-16T23:05:07.332Z,8.89
2019-05-16T23:07:36.760Z,9.06
2019-05-16T23:10:07.178Z,8.96
2019-05-16T23:12:37.156Z,8.96
2019-05-16T23:15:06.692Z,9.04
2019-05-16T23:17:37.545Z,9.01
2019-05-16T23:20:06.620Z,8.88
2019-05-16T23:22:36.761Z,8.93
2019-05-16T23:25:06.567Z,8.98
2019-05-16T23:27:36.895Z,9.01
2019-05-16T23:30:07.454Z,8.90
2019-05-16T23:32:36.614Z,8.92
2019-05-16T23:35:06.881Z,8.90
2019-05-16T23:37:37.046Z,9.04
2019-05-16T23:40:07.472Z,9.00
2019-05-16T23:42:37.050Z,8.88
2019-05-16T23:45:08.677Z,8.98
2019-05-16T23:47:37.356Z,9.00
2019-05-16T23:50:07.586Z,9.08
2019-05-16T23:52:36.918Z,8.90
2019-05-16T23:55:08.183Z,8.88
2019-05-16T23:57:37.330Z,8.74
